Ghat, Libya
Current Conditions -  °F | °C
As of 3:00 AM on Thursday 23 Oct 2014 (Local Time) from DAAJ Reporting Station
Clear Clear  
Wind Chill: 64°   Ceiling: Unl
Heat Index: 64°   Visibility: 6mi
Dew Point: 41°   Wind: 5mph
Humidity: 42%   Direction: 270°W
Pressure: 30.12"   Gusts: NA
Location:  24.96°N, 10.17°E
Report Text: DAAJ 230000Z 27004KT CAVOK 18/05 Q1020
Loading
Personal Weather Stations






























Interactive Weather Map
Tropical Storm Tracking
New forecast layout! Learn more

10-Day Weather Forecast

Advertisements
Track Severe Weather on mobile